createdAt,value
2023-02-28T00:01:54.802Z,27.15
2023-02-28T00:04:25.014Z,26.30
2023-02-28T00:06:55.760Z,25.42
2023-02-28T00:09:26.766Z,24.88
2023-02-28T00:11:56.940Z,24.98
2023-02-28T00:14:27.474Z,27.80
2023-02-28T00:16:58.061Z,26.90
2023-02-28T00:19:28.737Z,25.52
2023-02-28T00:21:58.952Z,24.85
2023-02-28T00:24:29.225Z,24.05
2023-02-28T00:27:00.013Z,24.58
2023-02-28T00:29:30.281Z,23.55
2023-02-28T00:32:00.822Z,24.33
2023-02-28T00:34:32.028Z,23.80
2023-02-28T00:37:02.225Z,23.08
2023-02-28T00:39:32.816Z,23.58
2023-02-28T00:42:03.309Z,22.98
2023-02-28T00:44:34.718Z,23.02
2023-02-28T00:47:04.963Z,23.60
2023-02-28T00:49:35.148Z,24.23
2023-02-28T00:52:05.841Z,23.83
2023-02-28T00:54:36.281Z,24.40
2023-02-28T00:57:06.490Z,22.42
2023-02-28T00:59:36.538Z,23.63
2023-02-28T01:02:07.632Z,24.73
2023-02-28T01:04:40.703Z,22.65
2023-02-28T01:07:11.549Z,23.20
2023-02-28T01:09:43.145Z,22.20
2023-02-28T01:12:14.269Z,32.45
2023-02-28T01:14:44.592Z,34.67
2023-02-28T01:17:15.469Z,23.48
2023-02-28T01:19:46.117Z,22.98
2023-02-28T01:22:16.463Z,22.35
2023-02-28T01:24:48.364Z,22.27
2023-02-28T01:27:18.958Z,22.55
2023-02-28T01:29:49.485Z,23.30
2023-02-28T01:32:19.775Z,22.35
2023-02-28T01:34:49.927Z,22.40
2023-02-28T01:37:20.038Z,22.88
2023-02-28T01:39:50.542Z,23.85
2023-02-28T01:42:24.157Z,26.88
2023-02-28T01:45:29.088Z,19.88
2023-02-28T01:48:04.597Z,20.05
2023-02-28T01:50:40.321Z,18.25
2023-02-28T01:53:15.291Z,19.08
2023-02-28T01:55:49.699Z,16.33
2023-02-28T01:58:20.392Z,18.80
2023-02-28T02:00:50.966Z,19.30
2023-02-28T02:03:23.815Z,16.98
2023-02-28T02:05:54.035Z,17.08
2023-02-28T02:08:28.241Z,17.20
2023-02-28T02:11:04.366Z,18.73
2023-02-28T02:14:14.870Z,16.50
2023-02-28T02:17:24.211Z,18.20
2023-02-28T02:20:29.113Z,18.17
2023-02-28T02:23:39.350Z,16.40
2023-02-28T02:26:44.431Z,15.18
2023-02-28T02:29:53.683Z,15.70
2023-02-28T02:33:03.319Z,15.52
2023-02-28T02:35:58.348Z,15.02
2023-02-28T02:38:56.129Z,18.88
2023-02-28T02:41:50.912Z,13.55
2023-02-28T02:44:47.071Z,13.00
2023-02-28T02:47:29.514Z,14.05
2023-02-28T02:50:03.414Z,15.85
2023-02-28T02:52:45.514Z,15.10
2023-02-28T02:55:18.585Z,15.10
2023-02-28T02:58:10.691Z,15.30
2023-02-28T03:00:49.244Z,17.00
2023-02-28T03:03:31.358Z,15.82
2023-02-28T03:06:03.573Z,17.15
2023-02-28T03:08:43.686Z,18.88
2023-02-28T03:11:18.499Z,19.25
2023-02-28T03:14:28.788Z,16.85
2023-02-28T03:17:38.066Z,17.75
2023-02-28T03:20:47.327Z,17.73
2023-02-28T03:23:24.411Z,15.73
2023-02-28T03:26:10.111Z,17.35
2023-02-28T03:29:15.467Z,16.83
2023-02-28T03:31:55.058Z,15.07
2023-02-28T03:34:36.018Z,15.40
2023-02-28T03:37:12.343Z,18.25
2023-02-28T03:40:04.636Z,16.85
2023-02-28T03:42:37.151Z,16.50
2023-02-28T03:45:28.576Z,16.63
2023-02-28T03:48:36.873Z,17.20
2023-02-28T03:51:10.020Z,16.85
2023-02-28T03:53:47.561Z,17.67
2023-02-28T03:56:56.801Z,16.48
2023-02-28T03:59:36.093Z,16.98
2023-02-28T04:02:06.633Z,17.58
2023-02-28T04:04:37.726Z,17.45
2023-02-28T04:07:14.040Z,16.38
2023-02-28T04:09:44.340Z,14.95
2023-02-28T04:12:14.510Z,16.40
2023-02-28T04:14:44.565Z,15.95
2023-02-28T04:17:15.123Z,15.68
2023-02-28T04:19:45.803Z,15.23
2023-02-28T04:22:16.993Z,14.88
2023-02-28T04:24:47.628Z,14.38
2023-02-28T04:27:18.412Z,16.02
2023-02-28T04:29:48.901Z,14.55
2023-02-28T04:32:19.549Z,15.10
2023-02-28T04:34:49.747Z,14.50
2023-02-28T04:37:19.874Z,14.68
2023-02-28T04:39:49.930Z,14.05
2023-02-28T04:42:20.024Z,14.63
2023-02-28T04:44:50.077Z,14.40
2023-02-28T04:47:20.170Z,14.95
2023-02-28T04:49:50.581Z,14.27
2023-02-28T04:52:21.133Z,14.63
2023-02-28T04:54:52.218Z,14.60
2023-02-28T04:57:22.412Z,14.05
2023-02-28T04:59:52.621Z,14.30
2023-02-28T05:02:23.801Z,29.35
2023-02-28T05:04:54.295Z,13.50
2023-02-28T05:07:24.772Z,14.55
2023-02-28T05:09:55.632Z,25.55
2023-02-28T05:12:26.493Z,26.15
2023-02-28T05:14:56.647Z,13.50
2023-02-28T05:17:27.147Z,13.65
2023-02-28T05:20:09.738Z,14.70
2023-02-28T05:22:44.708Z,13.68
2023-02-28T05:25:19.607Z,14.07
2023-02-28T05:27:49.694Z,13.30
2023-02-28T05:30:20.133Z,14.23
2023-02-28T05:32:54.444Z,14.13
2023-02-28T05:35:24.718Z,13.82
2023-02-28T05:37:55.794Z,13.82
2023-02-28T05:40:29.434Z,14.18
2023-02-28T05:43:00.054Z,13.45
2023-02-28T05:45:30.903Z,14.13
2023-02-28T05:48:01.436Z,13.60
2023-02-28T05:50:31.821Z,13.93
2023-02-28T05:53:01.912Z,13.80
2023-02-28T05:55:32.498Z,13.90
2023-02-28T05:58:02.737Z,12.60
2023-02-28T06:00:33.272Z,13.73
2023-02-28T06:03:04.624Z,13.32
2023-02-28T06:05:35.693Z,13.77
2023-02-28T06:08:05.921Z,12.18
2023-02-28T06:10:38.048Z,12.45
2023-02-28T06:13:10.168Z,12.65
2023-02-28T06:15:40.440Z,14.00
2023-02-28T06:18:10.789Z,13.50
2023-02-28T06:20:41.314Z,14.18
2023-02-28T06:23:11.989Z,13.63
2023-02-28T06:25:42.526Z,13.73
2023-02-28T06:28:13.066Z,13.77
2023-02-28T06:30:44.513Z,12.80
2023-02-28T06:33:17.074Z,12.82
2023-02-28T06:35:50.837Z,13.00
2023-02-28T06:38:21.435Z,12.95
2023-02-28T06:41:00.122Z,14.25
2023-02-28T06:43:34.844Z,12.63
2023-02-28T06:46:07.170Z,12.95
2023-02-28T06:48:37.613Z,12.45
2023-02-28T06:51:17.856Z,12.35
2023-02-28T06:53:47.977Z,12.45
2023-02-28T06:56:20.470Z,12.15
2023-02-28T06:58:53.184Z,11.93
2023-02-28T07:01:26.177Z,12.07
2023-02-28T07:03:57.386Z,12.38
2023-02-28T07:06:27.907Z,12.75
2023-02-28T07:08:58.140Z,12.23
2023-02-28T07:11:30.856Z,12.25
2023-02-28T07:14:01.307Z,11.82
2023-02-28T07:16:31.828Z,12.65
2023-02-28T07:19:02.107Z,12.90
2023-02-28T07:21:32.559Z,12.35
2023-02-28T07:24:03.041Z,12.55
2023-02-28T07:26:33.547Z,12.95
2023-02-28T07:29:04.875Z,12.55
2023-02-28T07:31:35.408Z,13.30
2023-02-28T07:34:06.165Z,13.15
2023-02-28T07:36:37.017Z,12.20
2023-02-28T07:39:07.308Z,14.18
2023-02-28T07:41:41.796Z,12.40
2023-02-28T07:44:13.110Z,13.52
2023-02-28T07:46:43.513Z,13.75
2023-02-28T07:49:14.029Z,13.68
2023-02-28T07:51:44.568Z,13.10
2023-02-28T07:54:14.668Z,12.40
2023-02-28T07:56:44.940Z,13.95
2023-02-28T07:59:15.077Z,13.10
2023-02-28T08:01:47.204Z,12.07
2023-02-28T08:04:17.341Z,12.95
2023-02-28T08:06:47.886Z,11.15
2023-02-28T08:09:18.039Z,10.75
2023-02-28T08:11:48.164Z,13.57
2023-02-28T08:14:18.309Z,12.48
2023-02-28T08:16:48.455Z,12.88
2023-02-28T08:19:18.532Z,13.30
2023-02-28T08:21:48.560Z,13.35
2023-02-28T08:24:18.666Z,13.50
2023-02-28T08:26:48.849Z,13.20
2023-02-28T08:29:19.241Z,14.25
2023-02-28T08:31:49.354Z,14.25
2023-02-28T08:34:19.815Z,13.00
2023-02-28T08:36:50.235Z,13.57
2023-02-28T08:39:22.502Z,13.85
2023-02-28T08:42:02.157Z,12.82
2023-02-28T08:44:36.354Z,13.43
2023-02-28T08:47:06.801Z,14.05
2023-02-28T08:49:37.435Z,14.82
2023-02-28T08:52:08.670Z,13.38
2023-02-28T08:54:39.599Z,13.75
2023-02-28T08:57:10.214Z,14.07
2023-02-28T08:59:40.667Z,13.15
2023-02-28T09:02:15.405Z,13.30
2023-02-28T09:04:47.942Z,14.45
2023-02-28T09:07:18.485Z,14.60
2023-02-28T09:09:58.082Z,14.95
2023-02-28T09:12:30.077Z,14.73
2023-02-28T09:15:00.618Z,13.80
2023-02-28T09:17:31.245Z,14.68
2023-02-28T09:20:01.523Z,15.55
2023-02-28T09:22:31.909Z,15.27
2023-02-28T09:25:02.386Z,15.65
2023-02-28T09:27:32.839Z,15.73
2023-02-28T09:30:02.685Z,14.88
2023-02-28T09:32:32.969Z,15.93
2023-02-28T09:35:03.603Z,15.13
2023-02-28T09:37:34.018Z,16.35
2023-02-28T09:40:04.387Z,15.88
2023-02-28T09:42:36.739Z,15.65
2023-02-28T09:45:18.567Z,15.55
2023-02-28T09:47:51.475Z,17.70
2023-02-28T09:50:35.424Z,15.60
2023-02-28T09:53:17.021Z,16.58
2023-02-28T09:55:52.875Z,16.60
2023-02-28T09:58:53.986Z,16.60
2023-02-28T10:02:03.251Z,16.00
2023-02-28T10:05:12.565Z,17.55
2023-02-28T10:08:13.207Z,16.90
2023-02-28T10:11:06.920Z,16.23
2023-02-28T10:14:04.901Z,15.88
2023-02-28T10:16:44.096Z,17.25
2023-02-28T10:19:40.163Z,21.58
2023-02-28T10:22:29.868Z,22.48
2023-02-28T10:25:06.804Z,21.45
2023-02-28T10:27:37.467Z,22.45
2023-02-28T10:30:11.598Z,20.15
2023-02-28T10:32:43.051Z,19.88
2023-02-28T10:35:21.520Z,19.13
2023-02-28T10:37:55.921Z,18.92
2023-02-28T10:40:38.778Z,17.65
2023-02-28T10:43:22.691Z,19.25
2023-02-28T10:46:02.465Z,18.42
2023-02-28T10:48:38.832Z,17.88
2023-02-28T10:51:14.134Z,19.20
2023-02-28T10:54:02.832Z,18.73
2023-02-28T10:56:35.212Z,16.38
2023-02-28T10:59:32.790Z,18.23
2023-02-28T11:02:03.291Z,16.23
2023-02-28T11:04:40.445Z,17.77
2023-02-28T11:07:37.364Z,17.55
2023-02-28T11:10:23.663Z,17.27
2023-02-28T11:13:00.553Z,18.13
2023-02-28T11:15:33.902Z,17.80
2023-02-28T11:18:44.162Z,17.73
2023-02-28T11:21:42.824Z,18.00
2023-02-28T11:24:43.470Z,30.38
2023-02-28T11:27:52.701Z,20.83
2023-02-28T11:30:45.074Z,27.63
2023-02-28T11:33:43.726Z,27.65
2023-02-28T11:36:35.652Z,27.45
2023-02-28T11:39:13.970Z,26.65
2023-02-28T11:42:12.317Z,28.10
2023-02-28T11:45:15.221Z,24.67
2023-02-28T11:48:16.882Z,25.27
2023-02-28T11:51:16.400Z,25.40
2023-02-28T11:54:04.057Z,25.20
2023-02-28T11:56:46.573Z,25.55
2023-02-28T11:59:48.146Z,24.90
2023-02-28T12:02:31.439Z,24.25
2023-02-28T12:05:40.753Z,27.23
2023-02-28T12:08:39.527Z,26.80
2023-02-28T12:11:44.191Z,27.25
2023-02-28T12:14:54.373Z,25.95
2023-02-28T12:17:55.244Z,28.50
2023-02-28T12:20:49.780Z,25.15
2023-02-28T12:23:59.261Z,26.08
2023-02-28T12:26:49.549Z,31.20
2023-02-28T12:29:32.055Z,27.02
2023-02-28T12:32:29.226Z,27.08
2023-02-28T12:35:13.830Z,31.90
2023-02-28T12:38:10.440Z,30.35
2023-02-28T12:40:52.771Z,34.20
2023-02-28T12:43:24.443Z,35.70
2023-02-28T12:46:09.404Z,39.15
2023-02-28T12:48:58.042Z,38.05
2023-02-28T12:51:30.292Z,34.33
2023-02-28T12:54:39.822Z,36.15
2023-02-28T12:57:44.692Z,35.83
2023-02-28T13:00:25.774Z,38.70
2023-02-28T13:03:30.886Z,37.90
2023-02-28T13:06:31.834Z,36.22
2023-02-28T13:09:21.599Z,37.55
2023-02-28T13:11:57.089Z,38.55
2023-02-28T13:14:42.449Z,34.00
2023-02-28T13:17:21.880Z,35.00
2023-02-28T13:20:02.647Z,33.55
2023-02-28T13:22:51.371Z,35.28
2023-02-28T13:25:56.413Z,35.40
2023-02-28T13:29:06.953Z,90.90
2023-02-28T13:32:16.514Z,105.90
2023-02-28T13:35:21.229Z,39.70
2023-02-28T13:37:53.009Z,39.72
2023-02-28T13:40:40.693Z,35.90
2023-02-28T13:43:12.747Z,36.88
2023-02-28T13:46:22.815Z,35.20
2023-02-28T13:48:53.020Z,35.15
2023-02-28T13:51:52.063Z,36.13
2023-02-28T13:55:01.637Z,34.65
2023-02-28T13:58:11.941Z,34.85
2023-02-28T14:01:21.455Z,36.55
2023-02-28T14:04:32.413Z,35.13
2023-02-28T14:07:05.007Z,34.33
2023-02-28T14:09:43.396Z,35.58
2023-02-28T14:12:53.240Z,36.45
2023-02-28T14:15:44.797Z,35.13
2023-02-28T14:18:39.212Z,36.45
2023-02-28T14:21:40.096Z,36.63
2023-02-28T14:24:39.621Z,36.72
2023-02-28T14:27:37.345Z,35.15
2023-02-28T14:30:36.451Z,204.27
2023-02-28T14:33:46.212Z,42.13
2023-02-28T14:36:30.452Z,52.95
2023-02-28T14:39:24.105Z,37.65
2023-02-28T14:41:54.576Z,37.28
2023-02-28T14:47:19.552Z,35.03
2023-02-28T14:49:50.868Z,34.50
2023-02-28T14:52:25.828Z,35.65
2023-02-28T14:55:02.194Z,35.53
2023-02-28T14:57:42.417Z,76.80
2023-02-28T15:00:36.509Z,46.95
2023-02-28T15:03:22.856Z,36.20
2023-02-28T15:06:17.080Z,35.42
2023-02-28T15:08:48.164Z,35.38
2023-02-28T15:11:21.791Z,34.40
2023-02-28T15:13:57.937Z,32.53
2023-02-28T15:16:49.031Z,33.70
2023-02-28T15:19:34.436Z,32.47
2023-02-28T15:22:31.550Z,33.65
2023-02-28T15:25:02.451Z,32.83
2023-02-28T15:27:36.013Z,34.20
2023-02-28T15:30:17.717Z,46.28
2023-02-28T15:32:48.987Z,48.42
2023-02-28T15:35:37.293Z,35.58
2023-02-28T15:38:27.729Z,33.78
2023-02-28T15:41:00.499Z,35.22
2023-02-28T15:43:36.539Z,35.60
2023-02-28T15:46:15.762Z,33.47
2023-02-28T15:48:59.807Z,35.03
2023-02-28T15:51:37.259Z,34.53
2023-02-28T15:54:27.125Z,34.78
2023-02-28T15:56:59.958Z,39.83
2023-02-28T15:59:32.610Z,38.30
2023-02-28T16:02:23.828Z,38.53
2023-02-28T16:05:30.413Z,39.88
2023-02-28T16:08:03.282Z,36.17
2023-02-28T16:10:33.787Z,36.00
2023-02-28T16:13:05.770Z,34.83
2023-02-28T16:15:44.921Z,37.97
2023-02-28T16:18:16.152Z,38.88
2023-02-28T16:20:47.169Z,38.92
2023-02-28T16:23:17.328Z,37.10
2023-02-28T16:25:51.563Z,37.42
2023-02-28T16:28:35.395Z,155.05
2023-02-28T16:31:08.375Z,67.07
2023-02-28T16:33:38.804Z,54.20
2023-02-28T16:36:13.332Z,40.25
2023-02-28T16:38:43.520Z,42.03
2023-02-28T16:41:22.347Z,39.88
2023-02-28T16:43:55.555Z,36.70
2023-02-28T16:46:26.135Z,37.17
2023-02-28T16:48:56.926Z,38.97
2023-02-28T16:51:27.077Z,38.47
2023-02-28T16:53:57.656Z,39.10
2023-02-28T16:56:28.784Z,39.38
2023-02-28T16:59:03.595Z,38.70
2023-02-28T17:01:34.551Z,38.85
2023-02-28T17:04:05.765Z,39.08
2023-02-28T17:06:35.909Z,39.20
2023-02-28T17:09:06.494Z,37.47
2023-02-28T17:11:37.020Z,38.58
2023-02-28T17:14:07.360Z,38.97
2023-02-28T17:16:43.029Z,41.85
2023-02-28T17:19:17.691Z,41.28
2023-02-28T17:21:50.342Z,41.17
2023-02-28T17:24:30.329Z,43.75
2023-02-28T17:27:01.555Z,40.65
2023-02-28T17:29:32.070Z,39.58
2023-02-28T17:32:12.172Z,39.38
2023-02-28T17:34:48.365Z,41.30
2023-02-28T17:37:18.657Z,41.33
2023-02-28T17:39:49.138Z,39.85
2023-02-28T17:42:20.288Z,40.60
2023-02-28T17:44:50.897Z,39.65
2023-02-28T17:47:21.364Z,40.22
2023-02-28T17:49:51.549Z,40.50
2023-02-28T17:52:21.907Z,42.80
2023-02-28T17:54:52.781Z,45.75
2023-02-28T17:57:23.156Z,45.70
2023-02-28T17:59:53.595Z,42.40
2023-02-28T18:02:23.825Z,43.83
2023-02-28T18:04:54.379Z,44.17
2023-02-28T18:07:26.238Z,42.38
2023-02-28T18:09:56.454Z,41.75
2023-02-28T18:12:26.910Z,41.10
2023-02-28T18:14:57.042Z,40.65
2023-02-28T18:17:27.477Z,40.25
2023-02-28T18:19:57.827Z,40.63
2023-02-28T18:22:28.625Z,39.47
2023-02-28T18:24:58.811Z,39.60
2023-02-28T18:27:29.469Z,41.40
2023-02-28T18:30:00.053Z,41.85
2023-02-28T18:32:31.824Z,41.83
2023-02-28T18:35:02.238Z,42.03
2023-02-28T18:37:32.512Z,43.83
2023-02-28T18:40:02.606Z,43.35
2023-02-28T18:42:32.807Z,45.38
2023-02-28T18:45:02.870Z,46.58
2023-02-28T18:47:32.977Z,46.75
2023-02-28T18:50:03.099Z,45.85
2023-02-28T18:52:33.477Z,46.28
2023-02-28T18:55:03.602Z,47.85
2023-02-28T18:57:33.810Z,48.08
2023-02-28T19:00:04.425Z,49.97
2023-02-28T19:02:34.849Z,49.15
2023-02-28T19:05:08.240Z,48.03
2023-02-28T19:07:38.394Z,49.47
2023-02-28T19:10:09.085Z,51.15
2023-02-28T19:12:40.485Z,49.65
2023-02-28T19:15:11.477Z,50.20
2023-02-28T19:17:42.532Z,51.03
2023-02-28T19:20:13.837Z,53.17
2023-02-28T19:22:45.763Z,52.10
2023-02-28T19:25:16.000Z,52.38
2023-02-28T19:27:46.535Z,53.95
2023-02-28T19:30:17.201Z,53.00
2023-02-28T19:32:47.730Z,54.17
2023-02-28T19:35:18.321Z,54.75
2023-02-28T19:37:48.800Z,54.55
2023-02-28T19:40:19.074Z,55.80
2023-02-28T19:42:49.679Z,56.72
2023-02-28T19:45:20.042Z,56.50
2023-02-28T19:47:50.088Z,56.25
2023-02-28T19:50:20.468Z,57.08
2023-02-28T19:52:54.075Z,55.10
2023-02-28T19:55:24.993Z,54.38
2023-02-28T19:57:55.633Z,51.85
2023-02-28T20:00:25.871Z,50.63
2023-02-28T20:02:56.457Z,52.60
2023-02-28T20:05:26.909Z,54.70
2023-02-28T20:07:57.043Z,52.95
2023-02-28T20:10:27.352Z,51.88
2023-02-28T20:12:57.577Z,52.97
2023-02-28T20:15:28.028Z,53.38
2023-02-28T20:17:59.054Z,56.40
2023-02-28T20:20:29.768Z,56.67
2023-02-28T20:22:59.799Z,59.65
2023-02-28T20:25:29.947Z,60.67
2023-02-28T20:28:00.010Z,60.42
2023-02-28T20:30:30.099Z,59.35
2023-02-28T20:33:01.026Z,59.33
2023-02-28T20:35:31.952Z,62.38
2023-02-28T20:38:02.191Z,62.95
2023-02-28T20:40:32.300Z,62.88
2023-02-28T20:43:03.922Z,63.58
2023-02-28T20:45:34.082Z,60.38
2023-02-28T20:48:04.303Z,62.95
2023-02-28T20:50:34.423Z,61.90
2023-02-28T20:53:04.442Z,61.63
2023-02-28T20:55:34.944Z,63.92
2023-02-28T20:58:05.050Z,60.63
2023-02-28T21:00:35.261Z,62.15
2023-02-28T21:03:05.425Z,60.97
2023-02-28T21:05:35.557Z,62.03
2023-02-28T21:08:05.971Z,62.20
2023-02-28T21:10:36.156Z,59.03
2023-02-28T21:13:06.318Z,60.17
2023-02-28T21:15:40.409Z,57.50
2023-02-28T21:18:10.513Z,61.53
2023-02-28T21:20:40.608Z,59.88
2023-02-28T21:23:10.639Z,60.22
2023-02-28T21:25:40.832Z,59.33
2023-02-28T21:28:11.046Z,60.90
2023-02-28T21:30:41.171Z,63.42
2023-02-28T21:33:11.188Z,63.42
2023-02-28T21:35:41.519Z,62.53
2023-02-28T21:38:11.822Z,60.35
2023-02-28T21:40:41.936Z,58.78
2023-02-28T21:43:11.881Z,57.28
2023-02-28T21:45:42.323Z,59.78
2023-02-28T21:48:12.392Z,61.38
2023-02-28T21:50:42.619Z,63.70
2023-02-28T21:53:13.805Z,61.38
2023-02-28T21:55:43.903Z,60.55
2023-02-28T21:58:15.837Z,59.35
2023-02-28T22:00:47.604Z,59.60
2023-02-28T22:03:17.663Z,63.10
2023-02-28T22:05:47.902Z,60.80
2023-02-28T22:08:17.950Z,64.88
2023-02-28T22:10:47.747Z,62.78
2023-02-28T22:13:18.254Z,65.03
2023-02-28T22:15:48.683Z,73.60
2023-02-28T22:18:19.187Z,71.35
2023-02-28T22:20:56.741Z,72.25
2023-02-28T22:23:27.028Z,70.53
2023-02-28T22:25:57.791Z,67.60
2023-02-28T22:28:29.533Z,66.30
2023-02-28T22:31:00.940Z,64.28
2023-02-28T22:33:31.351Z,64.05
2023-02-28T22:36:08.556Z,63.08
2023-02-28T22:38:39.002Z,62.63
2023-02-28T22:41:10.237Z,68.50
2023-02-28T22:43:42.456Z,67.57
2023-02-28T22:46:15.238Z,64.88
2023-02-28T22:48:45.411Z,65.90
2023-02-28T22:51:18.655Z,65.25
2023-02-28T22:53:50.261Z,64.78
2023-02-28T22:56:22.584Z,65.65
2023-02-28T22:58:58.903Z,64.97
2023-02-28T23:01:32.100Z,62.92
2023-02-28T23:04:03.112Z,66.82
2023-02-28T23:06:36.866Z,72.15
2023-02-28T23:09:10.047Z,71.53
2023-02-28T23:11:47.314Z,70.97
2023-02-28T23:14:19.226Z,74.13
2023-02-28T23:16:52.762Z,71.95
2023-02-28T23:19:25.946Z,74.32
2023-02-28T23:21:56.431Z,74.10
2023-02-28T23:24:28.696Z,69.35
2023-02-28T23:27:04.589Z,73.65
2023-02-28T23:29:35.171Z,72.85
2023-02-28T23:32:07.253Z,73.35
2023-02-28T23:34:37.676Z,86.68
2023-02-28T23:37:08.248Z,83.95
2023-02-28T23:39:38.945Z,93.30
2023-02-28T23:42:09.420Z,93.15
2023-02-28T23:44:42.275Z,87.75
2023-02-28T23:47:15.311Z,103.30
2023-02-28T23:49:45.958Z,108.88
2023-02-28T23:52:16.471Z,94.03
2023-02-28T23:54:46.796Z,99.18
2023-02-28T23:57:16.852Z,124.00
2023-02-28T23:59:47.416Z,136.52
